createdAt,value
2022-11-24T00:01:19.069Z,95113.06
2022-11-24T00:03:52.486Z,95117.53
2022-11-24T00:06:20.110Z,95119.75
2022-11-24T00:08:47.854Z,95112.44
2022-11-24T00:11:21.026Z,95113.69
2022-11-24T00:13:49.099Z,95130.53
2022-11-24T00:16:24.940Z,95116.50
2022-11-24T00:18:54.570Z,95121.91
2022-11-24T00:21:22.915Z,95124.63
2022-11-24T00:23:51.577Z,95124.81
2022-11-24T00:26:21.729Z,95131.91
2022-11-24T00:28:53.594Z,95127.38
2022-11-24T00:31:24.158Z,95135.25
2022-11-24T00:33:54.679Z,95126.41
2022-11-24T00:36:24.482Z,95117.53
2022-11-24T00:38:56.814Z,95121.09
2022-11-24T00:41:25.877Z,95118.22
2022-11-24T00:43:54.284Z,95113.72
2022-11-24T00:46:23.005Z,95117.53
2022-11-24T00:48:51.315Z,95120.41
2022-11-24T00:51:20.470Z,95126.25
2022-11-24T00:53:48.436Z,95126.75
2022-11-24T00:56:16.110Z,95131.13
2022-11-24T00:58:43.831Z,95124.06
2022-11-24T01:01:16.931Z,95127.97
2022-11-24T01:03:45.309Z,95135.56
2022-11-24T01:06:16.265Z,95138.69
2022-11-24T01:08:44.122Z,95152.69
2022-11-24T01:11:20.700Z,95149.97
2022-11-24T01:13:51.562Z,95152.25
2022-11-24T01:16:26.404Z,95153.75
2022-11-24T01:18:54.867Z,95148.16
2022-11-24T01:21:23.294Z,95151.25
2022-11-24T01:23:51.542Z,95166.59
2022-11-24T01:26:21.612Z,95156.63
2022-11-24T01:28:54.398Z,95162.03
2022-11-24T01:31:22.358Z,95163.22
2022-11-24T01:33:50.112Z,95160.03
2022-11-24T01:36:17.975Z,95163.97
2022-11-24T01:38:45.747Z,95168.84
2022-11-24T01:41:16.853Z,95166.78
2022-11-24T01:43:45.699Z,95169.88
2022-11-24T01:46:20.544Z,95164.38
2022-11-24T01:49:03.996Z,95163.94
2022-11-24T01:51:36.084Z,95167.06
2022-11-24T01:54:11.548Z,95175.63
2022-11-24T01:56:42.391Z,95179.84
2022-11-24T01:59:14.191Z,95175.47
2022-11-24T02:01:42.074Z,95183.91
2022-11-24T02:04:15.037Z,95182.28
2022-11-24T02:06:44.028Z,95185.03
2022-11-24T02:09:25.579Z,95186.88
2022-11-24T02:11:55.305Z,95192.56
2022-11-24T02:14:25.093Z,95196.75
2022-11-24T02:16:53.416Z,95201.78
2022-11-24T02:19:32.772Z,95199.22
2022-11-24T02:22:03.266Z,95201.78
2022-11-24T02:24:41.929Z,95202.81
2022-11-24T02:27:11.447Z,95206.06
2022-11-24T02:29:40.275Z,95209.63
2022-11-24T02:32:10.154Z,95208.50
2022-11-24T02:34:37.858Z,95218.69
2022-11-24T02:37:06.353Z,95210.66
2022-11-24T02:39:34.567Z,95218.25
2022-11-24T02:42:11.611Z,95215.22
2022-11-24T02:44:47.702Z,95223.97
2022-11-24T02:47:15.429Z,95213.91
2022-11-24T02:49:43.167Z,95225.22
2022-11-24T02:52:10.983Z,95219.34
2022-11-24T02:54:38.686Z,95224.03
2022-11-24T02:57:06.378Z,95228.09
2022-11-24T02:59:34.020Z,95231.34
2022-11-24T03:02:01.866Z,95231.50
2022-11-24T03:04:29.645Z,95230.38
2022-11-24T03:06:58.468Z,95230.22
2022-11-24T03:09:26.101Z,95225.03
2022-11-24T03:11:53.761Z,95232.97
2022-11-24T03:14:21.431Z,95241.53
2022-11-24T03:16:49.092Z,95238.75
2022-11-24T03:19:16.787Z,95225.94
2022-11-24T03:21:44.449Z,95238.34
2022-11-24T03:24:12.088Z,95238.34
2022-11-24T03:26:40.006Z,95239.91
2022-11-24T03:29:08.185Z,95243.31
2022-11-24T03:31:35.901Z,95248.63
2022-11-24T03:34:03.576Z,95250.25
2022-11-24T03:36:31.226Z,95249.03
2022-11-24T03:38:58.896Z,95253.88
2022-11-24T03:41:26.844Z,95260.53
2022-11-24T03:43:54.490Z,95258.09
2022-11-24T03:46:22.186Z,95267.13
2022-11-24T03:48:49.868Z,95262.25
2022-11-24T03:51:17.515Z,95267.13
2022-11-24T03:53:45.255Z,95264.22
2022-11-24T03:56:13.439Z,95266.88
2022-11-24T03:58:41.129Z,95271.25
2022-11-24T04:01:09.305Z,95266.88
2022-11-24T04:03:36.968Z,95274.66
2022-11-24T04:06:04.659Z,95274.66
2022-11-24T04:08:32.361Z,95274.56
2022-11-24T04:11:00.212Z,95273.63
2022-11-24T04:13:28.501Z,95277.25
2022-11-24T04:15:56.190Z,95281.97
2022-11-24T04:18:24.047Z,95283.59
2022-11-24T04:20:52.410Z,95276.66
2022-11-24T04:23:20.145Z,95283.16
2022-11-24T04:25:47.876Z,95290.91
2022-11-24T04:28:15.553Z,95294.19
2022-11-24T04:30:45.238Z,95294.41
2022-11-24T04:33:13.583Z,95296.56
2022-11-24T04:35:41.372Z,95295.44
2022-11-24T04:38:09.169Z,95292.69
2022-11-24T04:40:37.523Z,95301.41
2022-11-24T04:43:05.348Z,95303.38
2022-11-24T04:45:33.826Z,95304.66
2022-11-24T04:48:02.415Z,95315.03
2022-11-24T04:50:30.125Z,95316.88
2022-11-24T04:52:57.927Z,95323.97
2022-11-24T04:55:25.551Z,95318.97
2022-11-24T04:57:53.213Z,95328.94
2022-11-24T05:00:21.766Z,95330.03
2022-11-24T05:02:49.412Z,95337.72
2022-11-24T05:05:17.120Z,95340.25
2022-11-24T05:07:44.867Z,95341.88
2022-11-24T05:10:31.361Z,95343.34
2022-11-24T05:12:59.873Z,95346.44
2022-11-24T05:15:27.846Z,95347.56
2022-11-24T05:17:55.666Z,95356.56
2022-11-24T05:20:23.567Z,95354.13
2022-11-24T05:22:51.617Z,95351.25
2022-11-24T05:25:19.330Z,95358.88
2022-11-24T05:27:47.000Z,95348.88
2022-11-24T05:30:14.829Z,95353.78
2022-11-24T05:32:42.868Z,95363.31
2022-11-24T05:35:10.505Z,95361.38
2022-11-24T05:37:38.503Z,95365.47
2022-11-24T05:40:07.099Z,95369.97
2022-11-24T05:42:46.173Z,95364.38
2022-11-24T05:45:17.917Z,95372.28
2022-11-24T05:47:45.954Z,95377.47
2022-11-24T05:50:16.363Z,95375.69
2022-11-24T05:52:44.017Z,95378.09
2022-11-24T05:55:12.801Z,95376.19
2022-11-24T05:57:40.476Z,95381.09
2022-11-24T06:00:10.094Z,95398.09
2022-11-24T06:02:41.578Z,95393.72
2022-11-24T06:05:09.503Z,95393.59
2022-11-24T06:07:37.247Z,95393.44
2022-11-24T06:10:05.751Z,95399.97
2022-11-24T06:12:33.420Z,95398.31
2022-11-24T06:15:01.070Z,95405.13
2022-11-24T06:17:29.444Z,95408.53
2022-11-24T06:19:57.132Z,95398.31
2022-11-24T06:22:24.986Z,95407.28
2022-11-24T06:24:53.221Z,95405.75
2022-11-24T06:27:20.905Z,95412.41
2022-11-24T06:29:48.651Z,95417.16
2022-11-24T06:32:16.354Z,95422.19
2022-11-24T06:34:44.643Z,95421.59
2022-11-24T06:37:12.853Z,95412.56
2022-11-24T06:39:40.688Z,95417.44
2022-11-24T06:42:08.962Z,95416.94
2022-11-24T06:44:36.916Z,95416.09
2022-11-24T06:47:05.662Z,95420.03
2022-11-24T06:49:33.330Z,95421.97
2022-11-24T06:52:01.101Z,95427.81
2022-11-24T06:54:28.824Z,95426.69
2022-11-24T06:56:58.289Z,95429.81
2022-11-24T06:59:26.822Z,95427.22
2022-11-24T07:01:54.485Z,95447.59
2022-11-24T07:04:22.153Z,95442.25
2022-11-24T07:06:49.838Z,95435.66
2022-11-24T07:09:17.522Z,95428.56
2022-11-24T07:11:45.188Z,95424.56
2022-11-24T07:14:12.986Z,95434.16
2022-11-24T07:16:40.930Z,95439.06
2022-11-24T07:19:10.648Z,95449.13
2022-11-24T07:21:38.334Z,95448.31
2022-11-24T07:24:06.695Z,95452.69
2022-11-24T07:26:37.606Z,95454.97
2022-11-24T07:29:05.732Z,95453.88
2022-11-24T07:31:33.567Z,95464.59
2022-11-24T07:34:01.367Z,95463.47
2022-11-24T07:36:29.237Z,95465.09
2022-11-24T07:38:56.934Z,95464.13
2022-11-24T07:41:24.710Z,95467.25
2022-11-24T07:43:53.273Z,95476.66
2022-11-24T07:46:21.131Z,95483.31
2022-11-24T07:48:48.907Z,95481.69
2022-11-24T07:51:16.631Z,95487.53
2022-11-24T07:53:45.547Z,95483.97
2022-11-24T07:56:13.421Z,95483.81
2022-11-24T07:58:41.175Z,95487.75
2022-11-24T08:01:18.838Z,95491.16
2022-11-24T08:03:47.399Z,95496.03
2022-11-24T08:06:26.181Z,95502.72
2022-11-24T08:08:57.404Z,95492.50
2022-11-24T08:11:25.676Z,95503.38
2022-11-24T08:13:53.455Z,95499.81
2022-11-24T08:16:21.219Z,95490.75
2022-11-24T08:18:51.176Z,95495.19
2022-11-24T08:21:19.622Z,95493.63
2022-11-24T08:23:47.287Z,95491.69
2022-11-24T08:26:19.048Z,95488.66
2022-11-24T08:28:48.129Z,95492.41
2022-11-24T08:31:21.334Z,95485.31
2022-11-24T08:33:49.195Z,95493.38
2022-11-24T08:36:19.235Z,95497.22
2022-11-24T08:38:49.103Z,95502.44
2022-11-24T08:41:17.836Z,95508.44
2022-11-24T08:43:45.519Z,95512.81
2022-11-24T08:46:17.312Z,95514.81
2022-11-24T08:48:49.126Z,95519.03
2022-11-24T08:51:19.596Z,95517.41
2022-11-24T08:53:47.522Z,95514.66
2022-11-24T08:56:15.559Z,95520.34
2022-11-24T08:58:43.380Z,95512.25
2022-11-24T09:01:14.708Z,95509.50
2022-11-24T09:03:50.360Z,95515.81
2022-11-24T09:06:25.153Z,95519.09
2022-11-24T09:08:56.246Z,95516.16
2022-11-24T09:11:24.648Z,95516.03
2022-11-24T09:13:52.817Z,95506.66
2022-11-24T09:16:26.930Z,95513.16
2022-11-24T09:19:00.268Z,95517.25
2022-11-24T09:21:29.392Z,95508.63
2022-11-24T09:23:57.438Z,95514.34
2022-11-24T09:26:31.091Z,95516.59
2022-11-24T09:29:00.740Z,95516.75
2022-11-24T09:31:34.661Z,95519.19
2022-11-24T09:34:04.980Z,95514.66
2022-11-24T09:36:32.750Z,95516.63
2022-11-24T09:39:00.575Z,95516.97
2022-11-24T09:42:00.554Z,95513.75
2022-11-24T09:44:40.185Z,95520.22
2022-11-24T09:47:23.016Z,95517.03
2022-11-24T09:50:02.390Z,95509.75
2022-11-24T09:52:41.301Z,95518.19
2022-11-24T09:55:58.552Z,95522.59
2022-11-24T09:58:45.094Z,95523.47
2022-11-24T10:01:26.606Z,95520.06
2022-11-24T10:03:55.204Z,95521.06
2022-11-24T10:06:34.893Z,95520.47
2022-11-24T10:09:35.177Z,95527.59
2022-11-24T10:12:24.756Z,95525.97
2022-11-24T10:15:33.629Z,95535.22
2022-11-24T10:18:16.697Z,95526.97
2022-11-24T10:20:55.068Z,95537.38
2022-11-24T10:23:56.885Z,95539.00
2022-11-24T10:26:39.593Z,95538.41
2022-11-24T10:29:13.969Z,95541.31
2022-11-24T10:31:43.971Z,95547.19
2022-11-24T10:34:24.851Z,95545.88
2022-11-24T10:37:16.785Z,95538.06
2022-11-24T10:40:05.851Z,95544.28
2022-11-24T10:42:37.286Z,95550.31
2022-11-24T10:45:14.503Z,95548.00
2022-11-24T10:47:43.717Z,95542.69
2022-11-24T10:50:24.671Z,95541.75
2022-11-24T10:53:04.269Z,95541.09
2022-11-24T10:55:57.181Z,95544.34
2022-11-24T10:58:37.635Z,95535.25
2022-11-24T11:01:31.955Z,95538.69
2022-11-24T11:04:00.250Z,95540.31
2022-11-24T11:06:32.367Z,95537.38
2022-11-24T11:09:08.899Z,95539.34
2022-11-24T11:11:39.432Z,95539.19
2022-11-24T11:14:10.643Z,95541.31
2022-11-24T11:16:42.591Z,95547.47
2022-11-24T11:20:01.767Z,95552.22
2022-11-24T11:22:31.406Z,95553.19
2022-11-24T11:25:24.610Z,95553.19
2022-11-24T11:28:30.919Z,95555.66
2022-11-24T11:31:22.810Z,95561.34
2022-11-24T11:34:06.369Z,95554.19
2022-11-24T11:36:42.255Z,95562.97
2022-11-24T11:39:32.203Z,95559.72
2022-11-24T11:43:00.086Z,95558.06
2022-11-24T11:45:35.009Z,95562.31
2022-11-24T11:48:03.166Z,95566.53
2022-11-24T11:53:48.565Z,95560.69
2022-11-24T11:56:35.045Z,95559.03
2022-11-24T11:59:14.561Z,95555.97
2022-11-24T12:01:42.383Z,95560.53
2022-11-24T12:04:15.759Z,95563.94
2022-11-24T12:07:02.009Z,95571.44
2022-11-24T12:09:53.962Z,95569.63
2022-11-24T12:12:45.920Z,95559.53
2022-11-24T12:15:37.248Z,95560.69
2022-11-24T12:18:48.662Z,95574.34
2022-11-24T12:21:08.707Z,95568.19
2022-11-24T12:23:43.942Z,95563.09
2022-11-24T12:26:32.744Z,95562.78
2022-11-24T12:29:43.002Z,95571.25
2022-11-24T12:32:41.516Z,95570.44
2022-11-24T12:35:28.228Z,95566.53
2022-11-24T12:38:07.655Z,95563.63
2022-11-24T12:44:03.144Z,95569.47
2022-11-24T12:46:36.631Z,95574.53
2022-11-24T12:49:23.192Z,95579.88
2022-11-24T12:52:01.526Z,95589.00
2022-11-24T12:54:38.253Z,95583.31
2022-11-24T12:57:10.890Z,95584.28
2022-11-24T12:59:57.989Z,95578.75
2022-11-24T13:02:25.731Z,95591.44
2022-11-24T13:05:03.507Z,95591.13
2022-11-24T13:07:46.987Z,95601.03
2022-11-24T13:10:46.471Z,95594.53
2022-11-24T13:13:23.611Z,95601.19
2022-11-24T13:18:53.674Z,95604.94
2022-11-24T13:21:30.610Z,95611.28
2022-11-24T13:24:00.189Z,95610.78
2022-11-24T13:26:41.498Z,95607.22
2022-11-24T13:29:30.637Z,95609.16
2022-11-24T13:32:01.281Z,95615.50
2022-11-24T13:34:40.952Z,95613.56
2022-11-24T13:37:35.174Z,95616.97
2022-11-24T13:40:12.559Z,95613.22
2022-11-24T13:42:56.438Z,95621.69
2022-11-24T13:45:39.520Z,95625.25
2022-11-24T13:48:19.925Z,95629.31
2022-11-24T13:50:51.237Z,95632.38
2022-11-24T13:53:36.133Z,95634.03
2022-11-24T13:56:08.928Z,95644.44
2022-11-24T13:58:39.533Z,95643.94
2022-11-24T14:01:13.260Z,95640.84
2022-11-24T14:04:29.136Z,95647.19
2022-11-24T14:07:08.338Z,95643.09
2022-11-24T14:09:45.949Z,95651.38
2022-11-24T14:12:15.886Z,95656.59
2022-11-24T14:14:45.425Z,95658.69
2022-11-24T14:17:13.234Z,95662.44
2022-11-24T14:19:46.260Z,95662.78
2022-11-24T14:22:23.269Z,95663.56
2022-11-24T14:24:58.819Z,95660.00
2022-11-24T14:27:34.486Z,95669.78
2022-11-24T14:30:10.717Z,95658.56
2022-11-24T14:32:38.425Z,95663.75
2022-11-24T14:35:26.382Z,95666.38
2022-11-24T14:37:54.497Z,95669.28
2022-11-24T14:40:38.402Z,95676.41
2022-11-24T14:43:15.623Z,95680.34
2022-11-24T14:45:56.155Z,95686.22
2022-11-24T14:48:29.782Z,95682.59
2022-11-24T14:51:18.463Z,95698.22
2022-11-24T14:53:49.165Z,95693.53
2022-11-24T14:56:19.505Z,95688.84
2022-11-24T14:58:47.177Z,95687.22
2022-11-24T15:01:27.273Z,95694.03
2022-11-24T15:04:32.834Z,95689.94
2022-11-24T15:07:26.351Z,95703.09
2022-11-24T15:09:58.364Z,95703.94
2022-11-24T15:12:35.036Z,95710.09
2022-11-24T15:15:16.143Z,95719.00
2022-11-24T15:17:51.439Z,95714.81
2022-11-24T15:20:44.631Z,95715.78
2022-11-24T15:23:21.633Z,95718.97
2022-11-24T15:25:56.408Z,95726.16
2022-11-24T15:28:26.203Z,95727.72
2022-11-24T15:30:57.213Z,95727.06
2022-11-24T15:33:24.795Z,95730.16
2022-11-24T15:35:52.553Z,95737.41
2022-11-24T15:38:21.073Z,95737.41
2022-11-24T15:40:52.106Z,95740.34
2022-11-24T15:43:19.624Z,95741.16
2022-11-24T15:45:47.196Z,95737.75
2022-11-24T15:48:17.984Z,95741.31
2022-11-24T15:50:47.550Z,95745.69
2022-11-24T15:53:36.665Z,95746.47
2022-11-24T15:56:07.811Z,95750.31
2022-11-24T15:58:35.560Z,95764.00
2022-11-24T16:01:03.281Z,95757.00
2022-11-24T16:03:48.253Z,95762.06
2022-11-24T16:06:25.339Z,95756.53
2022-11-24T16:08:54.423Z,95769.91
2022-11-24T16:11:23.088Z,95760.31
2022-11-24T16:13:54.033Z,95775.28
2022-11-24T16:16:25.485Z,95769.69
2022-11-24T16:18:53.339Z,95773.25
2022-11-24T16:21:21.052Z,95771.63
2022-11-24T16:23:48.958Z,95784.63
2022-11-24T16:26:16.635Z,95782.50
2022-11-24T16:28:45.995Z,95784.53
2022-11-24T16:31:16.215Z,95791.16
2022-11-24T16:33:47.378Z,95790.31
2022-11-24T16:36:15.132Z,95790.16
2022-11-24T16:38:42.843Z,95786.88
2022-11-24T16:41:10.760Z,95790.47
2022-11-24T16:43:38.894Z,95794.03
2022-11-24T16:46:17.250Z,95801.16
2022-11-24T16:48:50.322Z,95806.88
2022-11-24T16:51:22.356Z,95803.47
2022-11-24T16:53:58.695Z,95807.81
2022-11-24T16:56:27.905Z,95811.72
2022-11-24T16:58:55.698Z,95808.00
2022-11-24T17:01:23.966Z,95807.81
2022-11-24T17:03:52.003Z,95803.91
2022-11-24T17:06:19.993Z,95796.25
2022-11-24T17:08:48.444Z,95805.97
2022-11-24T17:11:21.794Z,95813.47
2022-11-24T17:13:49.972Z,95797.59
2022-11-24T17:16:20.348Z,95809.91
2022-11-24T17:18:48.518Z,95809.69
2022-11-24T17:21:21.272Z,95802.06
2022-11-24T17:23:54.458Z,95812.16
2022-11-24T17:26:22.859Z,95812.81
2022-11-24T17:28:50.593Z,95818.84
2022-11-24T17:31:27.443Z,95818.97
2022-11-24T17:33:57.738Z,95824.03
2022-11-24T17:36:25.826Z,95824.53
2022-11-24T17:38:53.876Z,95826.53
2022-11-24T17:41:22.420Z,95824.59
2022-11-24T17:43:51.722Z,95830.94
2022-11-24T17:46:19.897Z,95832.06
2022-11-24T17:48:47.923Z,95832.94
2022-11-24T17:51:20.595Z,95835.84
2022-11-24T17:53:50.035Z,95842.00
2022-11-24T17:56:20.366Z,95839.91
2022-11-24T17:58:48.092Z,95848.66
2022-11-24T18:01:15.752Z,95843.13
2022-11-24T18:03:43.584Z,95846.69
2022-11-24T18:06:13.590Z,95849.13
2022-11-24T18:08:44.210Z,95838.28
2022-11-24T18:11:17.455Z,95845.94
2022-11-24T18:14:01.675Z,95851.66
2022-11-24T18:16:31.926Z,95854.84
2022-11-24T18:19:10.422Z,95860.34
2022-11-24T18:21:43.885Z,95855.94
2022-11-24T18:24:12.658Z,95849.28
2022-11-24T18:26:41.779Z,95855.94
2022-11-24T18:29:10.964Z,95858.38
2022-11-24T18:31:39.162Z,95858.53
2022-11-24T18:34:07.689Z,95857.59
2022-11-24T18:36:35.839Z,95865.09
2022-11-24T18:39:05.460Z,95871.25
2022-11-24T18:41:33.664Z,95878.09
2022-11-24T18:44:04.002Z,95873.84
2022-11-24T18:46:33.157Z,95875.50
2022-11-24T18:49:01.172Z,95879.06
2022-11-24T18:51:28.907Z,95884.91
2022-11-24T18:53:59.678Z,95883.56
2022-11-24T18:56:27.657Z,95874.81
2022-11-24T18:58:56.926Z,95879.06
2022-11-24T19:01:27.189Z,95881.13
2022-11-24T19:03:58.041Z,95881.94
2022-11-24T19:06:34.085Z,95875.09
2022-11-24T19:09:07.724Z,95872.81
2022-11-24T19:11:37.535Z,95865.91
2022-11-24T19:14:07.246Z,95868.50
2022-11-24T19:16:36.073Z,95871.41
2022-11-24T19:19:04.581Z,95879.19
2022-11-24T19:21:39.038Z,95878.50
2022-11-24T19:24:10.729Z,95880.75
2022-11-24T19:26:40.834Z,95881.41
2022-11-24T19:29:10.097Z,95884.53
2022-11-24T19:31:46.292Z,95881.50
2022-11-24T19:34:18.223Z,95884.75
2022-11-24T19:36:46.206Z,95881.63
2022-11-24T19:39:15.635Z,95885.84
2022-11-24T19:41:44.488Z,95894.16
2022-11-24T19:44:12.727Z,95891.00
2022-11-24T19:46:40.895Z,95894.25
2022-11-24T19:49:09.110Z,95888.94
2022-11-24T19:51:39.244Z,95897.81
2022-11-24T19:54:10.472Z,95898.94
2022-11-24T19:56:38.200Z,95901.47
2022-11-24T19:59:06.627Z,95904.44
2022-11-24T20:01:40.052Z,95908.84
2022-11-24T20:04:13.772Z,95911.94
2022-11-24T20:06:43.596Z,95914.03
2022-11-24T20:09:16.899Z,95910.59
2022-11-24T20:11:45.173Z,95916.09
2022-11-24T20:14:14.349Z,95918.53
2022-11-24T20:16:42.118Z,95922.72
2022-11-24T20:19:14.326Z,95926.78
2022-11-24T20:21:46.399Z,95926.50
2022-11-24T20:24:17.725Z,95926.09
2022-11-24T20:26:51.289Z,95926.25
2022-11-24T20:29:19.409Z,95926.50
2022-11-24T20:31:50.195Z,95939.94
2022-11-24T20:34:18.334Z,95946.47
2022-11-24T20:36:47.188Z,95944.25
2022-11-24T20:39:21.189Z,95948.19
2022-11-24T20:41:49.607Z,95944.97
2022-11-24T20:44:19.775Z,95942.94
2022-11-24T20:46:48.019Z,95960.13
2022-11-24T20:49:18.233Z,95955.81
2022-11-24T20:51:49.402Z,95951.88
2022-11-24T20:54:18.333Z,95961.31
2022-11-24T20:56:47.120Z,95956.81
2022-11-24T20:59:17.884Z,95956.56
2022-11-24T21:01:46.761Z,95957.13
2022-11-24T21:04:20.624Z,95967.31
2022-11-24T21:06:48.677Z,95957.50
2022-11-24T21:09:16.819Z,95961.34
2022-11-24T21:11:44.524Z,95954.81
2022-11-24T21:14:12.433Z,95961.09
2022-11-24T21:16:42.163Z,95953.06
2022-11-24T21:19:15.267Z,95959.81
2022-11-24T21:21:43.348Z,95961.50
2022-11-24T21:24:16.741Z,95969.72
2022-11-24T21:26:47.927Z,95964.81
2022-11-24T21:29:22.426Z,95973.03
2022-11-24T21:31:50.225Z,95970.28
2022-11-24T21:34:19.380Z,95960.81
2022-11-24T21:36:47.823Z,95959.56
2022-11-24T21:39:16.384Z,95966.91
2022-11-24T21:41:44.665Z,95962.69
2022-11-24T21:44:13.621Z,95966.28
2022-11-24T21:46:46.144Z,95968.19
2022-11-24T21:49:17.112Z,95966.13
2022-11-24T21:51:44.752Z,95969.78
2022-11-24T21:54:12.483Z,95969.63
2022-11-24T21:56:40.121Z,95970.28
2022-11-24T21:59:08.550Z,95977.28
2022-11-24T22:01:37.502Z,95972.91
2022-11-24T22:04:05.417Z,95970.03
2022-11-24T22:06:33.479Z,95969.34
2022-11-24T22:09:01.181Z,95974.38
2022-11-24T22:11:28.868Z,95974.94
2022-11-24T22:13:56.503Z,95975.91
2022-11-24T22:16:24.919Z,95966.59
2022-11-24T22:18:52.850Z,95976.97
2022-11-24T22:21:24.038Z,95970.81
2022-11-24T22:23:52.916Z,95974.25
2022-11-24T22:26:22.665Z,95977.13
2022-11-24T22:28:51.075Z,95980.84
2022-11-24T22:31:21.791Z,95980.31
2022-11-24T22:33:50.434Z,95978.69
2022-11-24T22:36:22.701Z,95982.22
2022-11-24T22:38:58.979Z,95975.66
2022-11-24T22:41:26.630Z,95985.53
2022-11-24T22:43:54.590Z,95980.34
2022-11-24T22:46:24.986Z,95990.72
2022-11-24T22:48:54.137Z,95990.59
2022-11-24T22:51:24.971Z,96002.75
2022-11-24T22:53:55.237Z,95997.72
2022-11-24T22:56:23.928Z,96005.25
2022-11-24T22:58:52.364Z,95998.56
2022-11-24T23:01:22.969Z,96006.19
2022-11-24T23:03:54.740Z,96000.88
2022-11-24T23:06:25.180Z,96001.31
2022-11-24T23:08:53.883Z,96002.91
2022-11-24T23:11:34.892Z,96006.34
2022-11-24T23:14:07.617Z,96001.44
2022-11-24T23:16:36.121Z,95999.25
2022-11-24T23:19:05.002Z,95999.16
2022-11-24T23:21:35.537Z,95990.84
2022-11-24T23:24:05.719Z,95994.91
2022-11-24T23:26:37.582Z,96005.72
2022-11-24T23:29:06.564Z,96009.81
2022-11-24T23:31:35.271Z,96018.81
2022-11-24T23:34:05.004Z,96002.16
2022-11-24T23:36:34.044Z,96004.59
2022-11-24T23:39:12.501Z,95998.72
2022-11-24T23:41:41.575Z,96003.66
2022-11-24T23:44:10.142Z,96004.19
2022-11-24T23:46:38.540Z,96001.91
2022-11-24T23:49:06.985Z,95992.75
2022-11-24T23:51:35.878Z,95999.47
2022-11-24T23:54:09.051Z,95993.91
2022-11-24T23:56:37.432Z,95999.91
2022-11-24T23:59:06.068Z,95994.03
